sensor_id;sensor_type;location;lat;lon;timestamp;pressure;altitude;pressure_sealevel;temperature;humidity
63343;BME280;49465;57.664;39.686;2022-11-30T00:02:22;103257.72;;;-11.86;54.53
63343;BME280;49465;57.664;39.686;2022-11-30T00:04:54;103253.75;;;-11.13;53.71
63343;BME280;49465;57.664;39.686;2022-11-30T00:07:26;103251.66;;;-12.00;54.11
63343;BME280;49465;57.664;39.686;2022-11-30T00:09:55;103257.81;;;-11.15;53.38
63343;BME280;49465;57.664;39.686;2022-11-30T00:12:24;103260.25;;;-11.05;53.32
63343;BME280;49465;57.664;39.686;2022-11-30T00:14:50;103250.66;;;-12.02;53.62
63343;BME280;49465;57.664;39.686;2022-11-30T00:17:17;103252.16;;;-12.16;54.51
63343;BME280;49465;57.664;39.686;2022-11-30T00:19:49;103252.09;;;-11.24;53.98
63343;BME280;49465;57.664;39.686;2022-11-30T00:22:16;103261.44;;;-11.11;52.84
63343;BME280;49465;57.664;39.686;2022-11-30T00:24:46;103253.59;;;-12.07;53.87
63343;BME280;49465;57.664;39.686;2022-11-30T00:27:15;103258.03;;;-11.24;53.21
63343;BME280;49465;57.664;39.686;2022-11-30T00:29:41;103256.28;;;-11.13;53.01
63343;BME280;49465;57.664;39.686;2022-11-30T00:32:16;103246.56;;;-12.11;53.83
63343;BME280;49465;57.664;39.686;2022-11-30T00:34:49;103255.19;;;-11.28;53.26
63343;BME280;49465;57.664;39.686;2022-11-30T00:37:15;103249.41;;;-12.19;54.45
63343;BME280;49465;57.664;39.686;2022-11-30T00:39:50;103248.88;;;-11.34;52.99
63343;BME280;49465;57.664;39.686;2022-11-30T00:42:18;103249.75;;;-11.21;52.89
63343;BME280;49465;57.664;39.686;2022-11-30T00:44:45;103245.97;;;-12.19;53.56
63343;BME280;49465;57.664;39.686;2022-11-30T00:47:11;103238.25;;;-12.32;54.44
63343;BME280;49465;57.664;39.686;2022-11-30T00:49:43;103249.19;;;-11.41;53.16
63343;BME280;49465;57.664;39.686;2022-11-30T00:52:13;103245.03;;;-11.28;53.02
63343;BME280;49465;57.664;39.686;2022-11-30T00:54:47;103247.91;;;-11.24;53.36
63343;BME280;49465;57.664;39.686;2022-11-30T00:57:13;103248.78;;;-11.23;53.01
63343;BME280;49465;57.664;39.686;2022-11-30T00:59:47;103248.22;;;-12.12;54.02
63343;BME280;49465;57.664;39.686;2022-11-30T01:02:18;103249.13;;;-11.42;53.53
63343;BME280;49465;57.664;39.686;2022-11-30T01:04:47;103245.47;;;-11.34;53.53
63343;BME280;49465;57.664;39.686;2022-11-30T01:07:13;103243.31;;;-12.32;54.00
63343;BME280;49465;57.664;39.686;2022-11-30T01:09:43;103246.13;;;-11.48;53.61
63343;BME280;49465;57.664;39.686;2022-11-30T01:12:19;103243.50;;;-11.38;52.44
63343;BME280;49465;57.664;39.686;2022-11-30T01:14:49;103247.91;;;-11.36;52.73
63343;BME280;49465;57.664;39.686;2022-11-30T01:17:15;103243.69;;;-11.35;53.00
63343;BME280;49465;57.664;39.686;2022-11-30T01:19:47;103250.16;;;-12.20;54.65
63343;BME280;49465;57.664;39.686;2022-11-30T01:22:16;103252.84;;;-11.49;53.72
63343;BME280;49465;57.664;39.686;2022-11-30T01:24:48;103252.09;;;-12.27;55.59
63343;BME280;49465;57.664;39.686;2022-11-30T01:27:25;103250.09;;;-11.52;54.43
63343;BME280;49465;57.664;39.686;2022-11-30T01:29:55;103245.13;;;-11.39;53.20
63343;BME280;49465;57.664;39.686;2022-11-30T01:32:32;103245.47;;;-11.34;52.83
63343;BME280;49465;57.664;39.686;2022-11-30T01:34:59;103237.59;;;-12.30;55.16
63343;BME280;49465;57.664;39.686;2022-11-30T01:37:27;103238.53;;;-11.48;53.98
63343;BME280;49465;57.664;39.686;2022-11-30T01:39:53;103234.72;;;-12.35;55.53
63343;BME280;49465;57.664;39.686;2022-11-30T01:42:22;103232.69;;;-11.47;54.11
63343;BME280;49465;57.664;39.686;2022-11-30T01:44:55;103228.50;;;-11.35;53.84
63343;BME280;49465;57.664;39.686;2022-11-30T01:47:36;103224.06;;;-11.97;56.34
63343;BME280;49465;57.664;39.686;2022-11-30T01:50:35;103219.72;;;-11.40;54.84
63343;BME280;49465;57.664;39.686;2022-11-30T01:53:03;103226.63;;;-11.26;54.08
63343;BME280;49465;57.664;39.686;2022-11-30T01:55:43;103226.94;;;-11.21;53.49
63343;BME280;49465;57.664;39.686;2022-11-30T01:58:32;103227.25;;;-11.87;57.13
63343;BME280;49465;57.664;39.686;2022-11-30T02:01:04;103228.72;;;-12.25;56.58
63343;BME280;49465;57.664;39.686;2022-11-30T02:03:48;103237.38;;;-11.87;58.49
63343;BME280;49465;57.664;39.686;2022-11-30T02:06:18;103230.28;;;-11.34;55.07
63343;BME280;49465;57.664;39.686;2022-11-30T02:09:00;103228.97;;;-12.10;57.29
63343;BME280;49465;57.664;39.686;2022-11-30T02:11:39;103231.59;;;-11.27;56.46
63343;BME280;49465;57.664;39.686;2022-11-30T02:23:12;103221.53;;;-11.02;54.47
63343;BME280;49465;57.664;39.686;2022-11-30T02:26:12;103224.22;;;-11.48;57.55
63343;BME280;49465;57.664;39.686;2022-11-30T02:31:37;103223.31;;;-10.89;54.65
63343;BME280;49465;57.664;39.686;2022-11-30T02:34:12;103220.78;;;-11.60;57.06
63343;BME280;49465;57.664;39.686;2022-11-30T02:36:45;103229.59;;;-10.96;56.16
63343;BME280;49465;57.664;39.686;2022-11-30T02:39:18;103223.22;;;-11.62;58.04
63343;BME280;49465;57.664;39.686;2022-11-30T02:41:48;103225.94;;;-10.88;56.86
63343;BME280;49465;57.664;39.686;2022-11-30T02:44:21;103222.72;;;-10.73;55.67
63343;BME280;49465;57.664;39.686;2022-11-30T02:49:31;103213.72;;;-11.64;56.82
63343;BME280;49465;57.664;39.686;2022-11-30T02:52:04;103209.94;;;-10.75;55.95
63343;BME280;49465;57.664;39.686;2022-11-30T02:54:35;103213.63;;;-10.58;55.25
63343;BME280;49465;57.664;39.686;2022-11-30T02:57:07;103209.19;;;-10.49;54.62
63343;BME280;49465;57.664;39.686;2022-11-30T02:59:33;103212.91;;;-10.44;54.89
63343;BME280;49465;57.664;39.686;2022-11-30T03:02:02;103213.91;;;-10.42;54.41
63343;BME280;49465;57.664;39.686;2022-11-30T03:04:34;103212.47;;;-10.38;53.88
63343;BME280;49465;57.664;39.686;2022-11-30T03:07:00;103214.44;;;-10.34;54.03
63343;BME280;49465;57.664;39.686;2022-11-30T03:09:33;103210.44;;;-11.28;55.19
63343;BME280;49465;57.664;39.686;2022-11-30T03:11:59;103202.53;;;-10.47;55.54
63343;BME280;49465;57.664;39.686;2022-11-30T03:14:35;103209.22;;;-11.09;56.02
63343;BME280;49465;57.664;39.686;2022-11-30T03:17:05;103203.63;;;-10.43;55.10
63343;BME280;49465;57.664;39.686;2022-11-30T03:19:36;103209.72;;;-10.28;54.74
63343;BME280;49465;57.664;39.686;2022-11-30T03:22:12;103204.94;;;-11.10;55.74
63343;BME280;49465;57.664;39.686;2022-11-30T03:24:43;103203.19;;;-10.38;55.58
63343;BME280;49465;57.664;39.686;2022-11-30T03:27:15;103201.53;;;-10.24;54.95
63343;BME280;49465;57.664;39.686;2022-11-30T03:29:44;103203.63;;;-10.18;53.80
63343;BME280;49465;57.664;39.686;2022-11-30T03:32:17;103208.00;;;-10.16;53.74
63343;BME280;49465;57.664;39.686;2022-11-30T03:34:52;103208.22;;;-10.12;54.17
63343;BME280;49465;57.664;39.686;2022-11-30T03:37:21;103203.91;;;-10.14;54.33
63343;BME280;49465;57.664;39.686;2022-11-30T03:39:53;103205.69;;;-10.12;53.76
63343;BME280;49465;57.664;39.686;2022-11-30T03:42:28;103204.81;;;-10.13;54.04
63343;BME280;49465;57.664;39.686;2022-11-30T03:45:00;103202.28;;;-11.12;55.46
63343;BME280;49465;57.664;39.686;2022-11-30T03:47:31;103198.75;;;-11.14;55.88
63343;BME280;49465;57.664;39.686;2022-11-30T03:50:00;103196.44;;;-10.37;54.51
63343;BME280;49465;57.664;39.686;2022-11-30T03:52:34;103195.69;;;-10.23;54.15
63343;BME280;49465;57.664;39.686;2022-11-30T03:55:06;103194.22;;;-10.19;54.38
63343;BME280;49465;57.664;39.686;2022-11-30T03:57:41;103186.63;;;-11.06;55.34
63343;BME280;49465;57.664;39.686;2022-11-30T04:00:10;103193.91;;;-10.37;54.08
63343;BME280;49465;57.664;39.686;2022-11-30T04:02:40;103196.34;;;-11.12;55.08
63343;BME280;49465;57.664;39.686;2022-11-30T04:05:12;103191.94;;;-10.41;54.07
63343;BME280;49465;57.664;39.686;2022-11-30T04:07:41;103200.34;;;-10.29;53.81
63343;BME280;49465;57.664;39.686;2022-11-30T04:10:11;103188.75;;;-10.25;54.27
63343;BME280;49465;57.664;39.686;2022-11-30T04:12:40;103196.34;;;-10.25;53.34
63343;BME280;49465;57.664;39.686;2022-11-30T04:15:12;103205.63;;;-10.26;53.48
63343;BME280;49465;57.664;39.686;2022-11-30T04:17:41;103202.97;;;-10.27;53.69
63343;BME280;49465;57.664;39.686;2022-11-30T04:20:14;103199.56;;;-10.28;54.20
63343;BME280;49465;57.664;39.686;2022-11-30T04:22:43;103206.31;;;-10.28;53.72
63343;BME280;49465;57.664;39.686;2022-11-30T04:25:12;103207.91;;;-10.30;54.22
63343;BME280;49465;57.664;39.686;2022-11-30T04:27:44;103205.38;;;-10.30;53.31
63343;BME280;49465;57.664;39.686;2022-11-30T04:30:14;103200.88;;;-11.32;55.28
63343;BME280;49465;57.664;39.686;2022-11-30T04:32:46;103203.16;;;-11.35;56.11
63343;BME280;49465;57.664;39.686;2022-11-30T04:35:24;103201.72;;;-10.59;54.68
63343;BME280;49465;57.664;39.686;2022-11-30T04:37:57;103199.25;;;-10.46;54.76
63343;BME280;49465;57.664;39.686;2022-11-30T04:40:28;103197.81;;;-10.42;54.20
63343;BME280;49465;57.664;39.686;2022-11-30T04:42:57;103198.69;;;-10.42;53.49
63343;BME280;49465;57.664;39.686;2022-11-30T04:45:29;103197.81;;;-10.42;53.27
63343;BME280;49465;57.664;39.686;2022-11-30T04:48:02;103192.63;;;-10.44;54.21
63343;BME280;49465;57.664;39.686;2022-11-30T04:50:32;103197.34;;;-11.34;55.10
63343;BME280;49465;57.664;39.686;2022-11-30T04:53:06;103206.38;;;-10.65;53.86
63343;BME280;49465;57.664;39.686;2022-11-30T04:55:33;103208.75;;;-10.55;53.57
63343;BME280;49465;57.664;39.686;2022-11-30T04:58:05;103206.34;;;-10.53;54.47
63343;BME280;49465;57.664;39.686;2022-11-30T05:00:34;103207.22;;;-10.53;54.13
63343;BME280;49465;57.664;39.686;2022-11-30T05:03:07;103206.69;;;-11.57;54.23
63343;BME280;49465;57.664;39.686;2022-11-30T05:05:33;103205.72;;;-10.75;54.24
63343;BME280;49465;57.664;39.686;2022-11-30T05:08:03;103206.38;;;-10.65;53.78
63343;BME280;49465;57.664;39.686;2022-11-30T05:10:35;103203.72;;;-11.63;54.72
63343;BME280;49465;57.664;39.686;2022-11-30T05:13:07;103210.38;;;-10.81;53.96
63343;BME280;49465;57.664;39.686;2022-11-30T05:15:39;103204.06;;;-11.70;55.31
63343;BME280;49465;57.664;39.686;2022-11-30T05:18:10;103199.06;;;-11.80;56.18
63343;BME280;49465;57.664;39.686;2022-11-30T05:20:37;103207.19;;;-10.90;54.54
63343;BME280;49465;57.664;39.686;2022-11-30T05:23:04;103204.63;;;-10.78;53.85
63343;BME280;49465;57.664;39.686;2022-11-30T05:25:30;103207.50;;;-10.73;53.85
63343;BME280;49465;57.664;39.686;2022-11-30T05:28:00;103209.78;;;-11.61;55.52
63343;BME280;49465;57.664;39.686;2022-11-30T05:30:32;103222.31;;;-10.91;54.71
63343;BME280;49465;57.664;39.686;2022-11-30T05:33:01;103213.41;;;-11.69;55.50
63343;BME280;49465;57.664;39.686;2022-11-30T05:35:30;103221.09;;;-10.97;54.91
63343;BME280;49465;57.664;39.686;2022-11-30T05:38:00;103216.47;;;-11.85;55.45
63343;BME280;49465;57.664;39.686;2022-11-30T05:40:29;103224.94;;;-11.84;56.12
63343;BME280;49465;57.664;39.686;2022-11-30T05:43:01;103225.50;;;-11.06;54.63
63343;BME280;49465;57.664;39.686;2022-11-30T05:45:31;103224.72;;;-11.87;55.21
63343;BME280;49465;57.664;39.686;2022-11-30T05:48:02;103228.91;;;-11.05;54.30
63343;BME280;49465;57.664;39.686;2022-11-30T05:50:34;103233.09;;;-10.94;54.35
63343;BME280;49465;57.664;39.686;2022-11-30T05:53:08;103228.25;;;-10.91;53.42
63343;BME280;49465;57.664;39.686;2022-11-30T05:55:38;103225.38;;;-11.90;55.20
63343;BME280;49465;57.664;39.686;2022-11-30T05:58:09;103227.81;;;-11.91;56.01
63343;BME280;49465;57.664;39.686;2022-11-30T06:00:38;103233.34;;;-11.15;54.77
63343;BME280;49465;57.664;39.686;2022-11-30T06:03:05;103233.19;;;-11.99;55.48
63343;BME280;49465;57.664;39.686;2022-11-30T06:05:39;103234.38;;;-11.94;56.43
63343;BME280;49465;57.664;39.686;2022-11-30T06:08:11;103230.72;;;-11.16;54.88
63343;BME280;49465;57.664;39.686;2022-11-30T06:10:40;103235.09;;;-11.02;54.04
63343;BME280;49465;57.664;39.686;2022-11-30T06:13:07;103240.34;;;-11.93;55.61
63343;BME280;49465;57.664;39.686;2022-11-30T06:15:37;103247.13;;;-11.11;55.09
63343;BME280;49465;57.664;39.686;2022-11-30T06:18:09;103248.66;;;-11.01;53.74
63343;BME280;49465;57.664;39.686;2022-11-30T06:20:39;103248.19;;;-10.96;53.81
63343;BME280;49465;57.664;39.686;2022-11-30T06:23:13;103249.69;;;-11.80;55.58
63343;BME280;49465;57.664;39.686;2022-11-30T06:25:44;103251.53;;;-11.08;54.87
63343;BME280;49465;57.664;39.686;2022-11-30T06:28:13;103255.59;;;-10.99;53.91
63343;BME280;49465;57.664;39.686;2022-11-30T06:30:42;103250.59;;;-11.91;55.36
63343;BME280;49465;57.664;39.686;2022-11-30T06:33:21;103246.47;;;-11.08;54.12
63343;BME280;49465;57.664;39.686;2022-11-30T06:35:54;103257.47;;;-10.96;54.05
63343;BME280;49465;57.664;39.686;2022-11-30T06:38:25;103252.59;;;-11.76;56.77
63343;BME280;49465;57.664;39.686;2022-11-30T06:41:08;103256.00;;;-11.63;57.11
63343;BME280;49465;57.664;39.686;2022-11-30T06:43:43;103249.44;;;-11.02;54.74
63343;BME280;49465;57.664;39.686;2022-11-30T06:46:15;103254.03;;;-10.85;54.65
63343;BME280;49465;57.664;39.686;2022-11-30T06:48:48;103258.00;;;-10.77;53.90
63343;BME280;49465;57.664;39.686;2022-11-30T06:51:26;103255.81;;;-10.72;54.16
63343;BME280;49465;57.664;39.686;2022-11-30T06:53:55;103267.91;;;-10.68;54.26
63343;BME280;49465;57.664;39.686;2022-11-30T06:56:31;103251.91;;;-10.67;53.62
63343;BME280;49465;57.664;39.686;2022-11-30T06:58:58;103254.56;;;-10.65;53.77
63343;BME280;49465;57.664;39.686;2022-11-30T07:01:35;103263.63;;;-11.40;56.75
63343;BME280;49465;57.664;39.686;2022-11-30T07:04:02;103262.88;;;-10.80;54.78
63343;BME280;49465;57.664;39.686;2022-11-30T07:06:39;103267.25;;;-10.65;53.76
63343;BME280;49465;57.664;39.686;2022-11-30T07:09:16;103267.28;;;-11.36;56.86
63343;BME280;49465;57.664;39.686;2022-11-30T07:11:53;103266.59;;;-11.45;57.94
63343;BME280;49465;57.664;39.686;2022-11-30T07:14:24;103270.97;;;-11.55;57.90
63343;BME280;49465;57.664;39.686;2022-11-30T07:16:53;103271.66;;;-10.75;56.39
63343;BME280;49465;57.664;39.686;2022-11-30T07:19:31;103273.84;;;-10.56;55.05
63343;BME280;49465;57.664;39.686;2022-11-30T07:22:08;103274.47;;;-10.46;54.12
63343;BME280;49465;57.664;39.686;2022-11-30T07:24:38;103273.91;;;-10.42;54.46
63343;BME280;49465;57.664;39.686;2022-11-30T07:27:23;103277.63;;;-10.37;54.58
63343;BME280;49465;57.664;39.686;2022-11-30T07:29:55;103281.25;;;-10.33;53.62
63343;BME280;49465;57.664;39.686;2022-11-30T07:32:27;103278.13;;;-10.29;53.71
63343;BME280;49465;57.664;39.686;2022-11-30T07:35:03;103271.72;;;-10.24;54.41
63343;BME280;49465;57.664;39.686;2022-11-30T07:37:35;103273.56;;;-10.22;54.11
63343;BME280;49465;57.664;39.686;2022-11-30T07:40:05;103270.47;;;-10.18;54.58
63343;BME280;49465;57.664;39.686;2022-11-30T07:42:34;103281.72;;;-10.14;53.73
63343;BME280;49465;57.664;39.686;2022-11-30T07:45:09;103272.44;;;-10.14;54.31
63343;BME280;49465;57.664;39.686;2022-11-30T07:47:44;103271.09;;;-10.08;54.26
63343;BME280;49465;57.664;39.686;2022-11-30T07:50:15;103273.06;;;-10.04;54.30
63343;BME280;49465;57.664;39.686;2022-11-30T07:52:47;103266.63;;;-10.98;57.01
63343;BME280;49465;57.664;39.686;2022-11-30T07:55:19;103276.44;;;-10.17;55.39
63343;BME280;49465;57.664;39.686;2022-11-30T07:57:54;103274.06;;;-10.02;55.23
63343;BME280;49465;57.664;39.686;2022-11-30T08:00:27;103276.75;;;-10.86;57.42
63343;BME280;49465;57.664;39.686;2022-11-30T08:03:08;103273.75;;;-10.07;57.04
63343;BME280;49465;57.664;39.686;2022-11-30T08:05:45;103273.81;;;-9.93;55.24
63343;BME280;49465;57.664;39.686;2022-11-30T08:08:20;103276.28;;;-10.69;58.19
63343;BME280;49465;57.664;39.686;2022-11-30T08:10:54;103276.13;;;-9.97;56.60
63343;BME280;49465;57.664;39.686;2022-11-30T08:13:32;103277.91;;;-9.82;55.29
63343;BME280;49465;57.664;39.686;2022-11-30T08:16:08;103274.22;;;-9.74;55.03
63343;BME280;49465;57.664;39.686;2022-11-30T08:18:43;103275.81;;;-10.51;57.44
63343;BME280;49465;57.664;39.686;2022-11-30T08:21:17;103264.34;;;-9.83;55.53
63343;BME280;49465;57.664;39.686;2022-11-30T08:23:48;103272.94;;;-10.44;58.14
63343;BME280;49465;57.664;39.686;2022-11-30T08:26:41;103272.59;;;-9.73;55.22
63343;BME280;49465;57.664;39.686;2022-11-30T08:29:11;103272.06;;;-9.56;54.94
63343;BME280;49465;57.664;39.686;2022-11-30T08:31:41;103271.56;;;-10.39;56.81
63343;BME280;49465;57.664;39.686;2022-11-30T08:34:13;103259.44;;;-10.43;58.55
63343;BME280;49465;57.664;39.686;2022-11-30T08:36:44;103263.22;;;-9.61;57.30
63343;BME280;49465;57.664;39.686;2022-11-30T08:39:16;103265.97;;;-9.45;55.73
63343;BME280;49465;57.664;39.686;2022-11-30T08:41:45;103256.00;;;-10.32;57.01
63343;BME280;49465;57.664;39.686;2022-11-30T08:44:18;103262.25;;;-10.27;58.78
63343;BME280;49465;57.664;39.686;2022-11-30T08:46:49;103250.34;;;-9.51;56.64
63343;BME280;49465;57.664;39.686;2022-11-30T08:49:27;103246.38;;;-9.34;55.60
63343;BME280;49465;57.664;39.686;2022-11-30T08:52:04;103248.72;;;-9.89;57.47
63343;BME280;49465;57.664;39.686;2022-11-30T08:54:36;103253.03;;;-10.13;58.67
63343;BME280;49465;57.664;39.686;2022-11-30T08:57:07;103252.81;;;-9.39;56.31
63343;BME280;49465;57.664;39.686;2022-11-30T08:59:36;103251.19;;;-10.02;58.46
63343;BME280;49465;57.664;39.686;2022-11-30T09:02:20;103253.78;;;-9.89;59.30
63343;BME280;49465;57.664;39.686;2022-11-30T09:04:50;103247.63;;;-9.27;56.86
63343;BME280;49465;57.664;39.686;2022-11-30T09:07:24;103245.19;;;-9.12;55.84
63343;BME280;49465;57.664;39.686;2022-11-30T09:09:56;103244.72;;;-9.85;58.02
63343;BME280;49465;57.664;39.686;2022-11-30T09:12:28;103246.75;;;-9.15;57.35
63343;BME280;49465;57.664;39.686;2022-11-30T09:14:54;103243.34;;;-9.93;57.70
63343;BME280;49465;57.664;39.686;2022-11-30T09:17:26;103237.69;;;-9.11;57.70
63343;BME280;49465;57.664;39.686;2022-11-30T09:19:59;103247.91;;;-8.96;56.85
63343;BME280;49465;57.664;39.686;2022-11-30T09:22:32;103237.72;;;-9.63;58.60
63343;BME280;49465;57.664;39.686;2022-11-30T09:25:08;103243.41;;;-9.00;56.80
63343;BME280;49465;57.664;39.686;2022-11-30T09:27:38;103248.69;;;-9.64;57.87
63343;BME280;49465;57.664;39.686;2022-11-30T09:30:10;103243.03;;;-8.93;56.20
63343;BME280;49465;57.664;39.686;2022-11-30T09:32:37;103241.44;;;-8.78;55.63
63343;BME280;49465;57.664;39.686;2022-11-30T09:35:06;103239.28;;;-8.71;55.38
63343;BME280;49465;57.664;39.686;2022-11-30T09:37:34;103246.31;;;-8.67;55.88
63343;BME280;49465;57.664;39.686;2022-11-30T09:40:01;103245.56;;;-9.60;57.55
63343;BME280;49465;57.664;39.686;2022-11-30T09:45:52;103246.63;;;-9.43;58.76
63343;BME280;49465;57.664;39.686;2022-11-30T09:48:53;103252.78;;;-8.72;57.31
63343;BME280;49465;57.664;39.686;2022-11-30T09:51:41;103249.44;;;-8.58;56.40
63343;BME280;49465;57.664;39.686;2022-11-30T09:54:20;103242.16;;;-8.52;56.12
63343;BME280;49465;57.664;39.686;2022-11-30T09:56:56;103247.44;;;-8.49;55.85
63343;BME280;49465;57.664;39.686;2022-11-30T09:59:32;103250.97;;;-9.28;57.77
63343;BME280;49465;57.664;39.686;2022-11-30T10:02:28;103244.41;;;-8.57;57.08
63343;BME280;49465;57.664;39.686;2022-11-30T10:05:10;103248.50;;;-8.45;56.53
63343;BME280;49465;57.664;39.686;2022-11-30T10:13:38;103246.66;;;-8.48;56.99
63343;BME280;49465;57.664;39.686;2022-11-30T10:16:27;103246.75;;;-9.01;58.69
63343;BME280;49465;57.664;39.686;2022-11-30T10:27:27;103240.28;;;-8.26;56.64
63343;BME280;49465;57.664;39.686;2022-11-30T10:30:17;103238.09;;;-8.20;56.35
63343;BME280;49465;57.664;39.686;2022-11-30T10:33:00;103238.38;;;-8.16;56.85
63343;BME280;49465;57.664;39.686;2022-11-30T10:35:49;103237.81;;;-8.68;58.65
63343;BME280;49465;57.664;39.686;2022-11-30T10:38:29;103245.75;;;-8.90;59.23
63343;BME280;49465;57.664;39.686;2022-11-30T10:46:36;103233.66;;;-8.09;56.57
63343;BME280;49465;57.664;39.686;2022-11-30T10:49:31;103230.22;;;-8.53;58.53
63343;BME280;49465;57.664;39.686;2022-11-30T10:52:11;103225.56;;;-8.17;57.29
63343;BME280;49465;57.664;39.686;2022-11-30T10:54:47;103235.88;;;-8.85;59.24
63343;BME280;49465;57.664;39.686;2022-11-30T10:57:26;103237.38;;;-8.18;58.30
63343;BME280;49465;57.664;39.686;2022-11-30T10:59:59;103239.13;;;-8.03;58.06
63343;BME280;49465;57.664;39.686;2022-11-30T11:02:36;103240.84;;;-8.73;59.74
63343;BME280;49465;57.664;39.686;2022-11-30T11:07:51;103242.13;;;-7.96;58.18
63343;BME280;49465;57.664;39.686;2022-11-30T11:13:10;103237.22;;;-8.77;58.72
63343;BME280;49465;57.664;39.686;2022-11-30T11:15:58;103239.63;;;-8.52;60.80
63343;BME280;49465;57.664;39.686;2022-11-30T11:18:30;103238.41;;;-8.01;59.40
63343;BME280;49465;57.664;39.686;2022-11-30T11:21:22;103232.09;;;-8.36;60.22
63343;BME280;49465;57.664;39.686;2022-11-30T11:23:57;103238.84;;;-7.93;59.80
63343;BME280;49465;57.664;39.686;2022-11-30T11:26:32;103231.91;;;-7.81;58.71
63343;BME280;49465;57.664;39.686;2022-11-30T11:29:26;103222.09;;;-7.75;57.99
63343;BME280;49465;57.664;39.686;2022-11-30T11:32:32;103227.31;;;-8.16;60.33
63343;BME280;49465;57.664;39.686;2022-11-30T11:38:30;103222.22;;;-8.16;59.98
63343;BME280;49465;57.664;39.686;2022-11-30T11:41:23;103220.25;;;-7.77;58.65
63343;BME280;49465;57.664;39.686;2022-11-30T11:47:01;103225.16;;;-8.23;60.71
63343;BME280;49465;57.664;39.686;2022-11-30T11:49:36;103229.66;;;-7.76;59.48
63343;BME280;49465;57.664;39.686;2022-11-30T11:52:15;103227.09;;;-7.61;58.75
63343;BME280;49465;57.664;39.686;2022-11-30T11:55:02;103230.91;;;-7.54;58.00
63343;BME280;49465;57.664;39.686;2022-11-30T11:57:57;103235.75;;;-8.02;59.42
63343;BME280;49465;57.664;39.686;2022-11-30T12:00:32;103232.34;;;-8.46;60.21
63343;BME280;49465;57.664;39.686;2022-11-30T12:03:30;103230.06;;;-7.68;58.92
63343;BME280;49465;57.664;39.686;2022-11-30T12:06:10;103230.72;;;-8.30;59.93
63343;BME280;49465;57.664;39.686;2022-11-30T12:08:53;103238.88;;;-7.63;58.30
63343;BME280;49465;57.664;39.686;2022-11-30T12:11:43;103238.00;;;-8.22;59.75
63343;BME280;49465;57.664;39.686;2022-11-30T12:14:23;103242.00;;;-8.40;59.73
63343;BME280;49465;57.664;39.686;2022-11-30T12:20:22;103234.56;;;-7.49;57.94
63343;BME280;49465;57.664;39.686;2022-11-30T12:26:28;103236.66;;;-7.57;58.24
63343;BME280;49465;57.664;39.686;2022-11-30T12:29:24;103236.72;;;-8.15;58.94
63343;BME280;49465;57.664;39.686;2022-11-30T12:32:48;103241.56;;;-8.05;59.48
63343;BME280;49465;57.664;39.686;2022-11-30T12:38:19;103244.53;;;-8.40;58.75
63343;BME280;49465;57.664;39.686;2022-11-30T12:46:53;103237.28;;;-8.34;58.44
63343;BME280;49465;57.664;39.686;2022-11-30T12:57:46;103234.94;;;-8.31;59.79
63343;BME280;49465;57.664;39.686;2022-11-30T13:00:37;103240.53;;;-7.79;58.06
63343;BME280;49465;57.664;39.686;2022-11-30T13:03:44;103236.84;;;-7.69;57.32
63343;BME280;49465;57.664;39.686;2022-11-30T13:06:30;103238.63;;;-7.68;56.28
63343;BME280;49465;57.664;39.686;2022-11-30T13:09:37;103236.31;;;-8.21;58.08
63343;BME280;49465;57.664;39.686;2022-11-30T13:12:46;103235.94;;;-7.84;56.84
63343;BME280;49465;57.664;39.686;2022-11-30T13:15:23;103231.22;;;-7.78;56.67
63343;BME280;49465;57.664;39.686;2022-11-30T13:17:59;103244.94;;;-7.76;56.33
63343;BME280;49465;57.664;39.686;2022-11-30T13:20:57;103236.31;;;-7.78;55.98
63343;BME280;49465;57.664;39.686;2022-11-30T13:23:51;103234.56;;;-7.79;55.64
63343;BME280;49465;57.664;39.686;2022-11-30T13:27:00;103233.69;;;-7.80;55.37
63343;BME280;49465;57.664;39.686;2022-11-30T13:32:18;103230.69;;;-8.87;57.34
63343;BME280;49465;57.664;39.686;2022-11-30T13:34:50;103232.38;;;-9.01;57.54
63343;BME280;49465;57.664;39.686;2022-11-30T13:37:25;103229.16;;;-8.13;57.04
63343;BME280;49465;57.664;39.686;2022-11-30T13:39:56;103233.31;;;-8.01;56.34
63343;BME280;49465;57.664;39.686;2022-11-30T13:42:33;103227.16;;;-8.76;57.29
63343;BME280;49465;57.664;39.686;2022-11-30T13:47:54;103218.53;;;-8.06;55.61
63343;BME280;49465;57.664;39.686;2022-11-30T13:50:35;103217.84;;;-8.04;55.54
63343;BME280;49465;57.664;39.686;2022-11-30T13:53:29;103221.19;;;-8.05;55.50
63343;BME280;49465;57.664;39.686;2022-11-30T14:01:51;103218.19;;;-8.12;55.25
63343;BME280;49465;57.664;39.686;2022-11-30T14:04:20;103221.50;;;-9.11;57.06
63343;BME280;49465;57.664;39.686;2022-11-30T14:06:55;103212.59;;;-8.35;55.63
63343;BME280;49465;57.664;39.686;2022-11-30T14:21:18;103211.63;;;-8.52;56.47
63343;BME280;49465;57.664;39.686;2022-11-30T14:24:03;103220.84;;;-9.09;56.96
63343;BME280;49465;57.664;39.686;2022-11-30T14:26:45;103211.16;;;-8.60;55.94
63343;BME280;49465;57.664;39.686;2022-11-30T14:29:26;103210.81;;;-8.51;55.65
63343;BME280;49465;57.664;39.686;2022-11-30T14:32:35;103209.97;;;-8.51;55.32
63343;BME280;49465;57.664;39.686;2022-11-30T14:35:18;103208.97;;;-8.53;55.44
63343;BME280;49465;57.664;39.686;2022-11-30T14:37:56;103208.78;;;-8.57;55.33
63343;BME280;49465;57.664;39.686;2022-11-30T14:40:28;103218.78;;;-8.60;54.77
63343;BME280;49465;57.664;39.686;2022-11-30T14:43:16;103210.09;;;-8.63;55.31
63343;BME280;49465;57.664;39.686;2022-11-30T14:46:15;103215.88;;;-8.66;55.06
63343;BME280;49465;57.664;39.686;2022-11-30T14:49:01;103212.28;;;-8.69;54.82
63343;BME280;49465;57.664;39.686;2022-11-30T14:51:35;103213.31;;;-9.61;56.04